Time;durP1;ratioP1;P1;durP2;ratioP2;P2;SDS_P1;SDS_P2;PMS_P1;PMS_P2;Temp;Humidity;BMP_temperature;BMP_pressure;BME280_temperature;BME280_humidity;BME280_pressure;Samples;Min_cycle;Max_cycle;Signal;HPM_P1;HPM_P2
2021/12/01 13:52:47;;;;;;;45.23;17.87;;;;;;;3.16;100.00;99460.36;1819444;76;25687;-94
2021/12/01 13:55:32;;;;;;;42.73;16.87;;;;;;;3.14;100.00;99459.25;1781697;79;21062;-92
2021/12/01 13:58:15;;;;;;;40.50;16.52;;;;;;;3.14;100.00;99465.11;1776962;79;21066;-92
2021/12/01 14:00:49;;;;;;;46.05;17.42;;;;;;;3.18;100.00;99464.93;1796558;77;22417;-92
2021/12/01 14:03:18;;;;;;;42.62;18.12;;;;;;;3.19;100.00;99459.35;1785312;77;20976;-93
2021/12/01 14:05:50;;;;;;;46.02;18.37;;;;;;;3.22;100.00;99465.25;1811427;77;21000;-95
2021/12/01 14:08:32;;;;;;;42.45;16.82;;;;;;;3.23;100.00;99469.52;1800727;77;21149;-90
2021/12/01 14:11:30;;;;;;;40.63;16.63;;;;;;;3.24;100.00;99465.83;1789643;77;21099;-94
2021/12/01 14:14:03;;;;;;;42.17;16.82;;;;;;;3.19;100.00;99466.01;1773530;77;21119;-92
2021/12/01 14:16:31;;;;;;;;;;;;;;;3.25;100.00;99470.91;1773696;79;21117;-91
2021/12/01 14:18:58;;;;;;;43.63;17.42;;;;;;;3.25;100.00;99468.23;1782038;78;20474;-90
2021/12/01 14:21:27;;;;;;;39.73;16.07;;;;;;;3.28;100.00;99466.95;1748112;78;21322;-93
2021/12/01 14:24:01;;;;;;;44.53;16.97;;;;;;;3.29;100.00;99469.89;1773921;78;21205;-94
2021/12/01 14:26:35;;;;;;;;;;;;;;;3.32;100.00;99472.08;1785501;78;20997;-93
2021/12/01 14:29:06;;;;;;;36.75;14.60;;;;;;;3.32;100.00;99470.21;1684755;82;20233;-95
2021/12/01 14:31:34;;;;;;;36.77;15.38;;;;;;;3.32;100.00;99480.06;1650572;84;21079;-92
2021/12/01 14:34:07;;;;;;;42.83;16.77;;;;;;;3.33;100.00;99479.03;1668394;84;20959;-94
2021/12/01 14:36:36;;;;;;;80.32;26.40;;;;;;;3.34;100.00;99480.64;1676201;84;21097;-93
2021/12/01 14:39:06;;;;;;;45.55;16.90;;;;;;;3.35;100.00;99483.58;1681078;84;21690;-94
2021/12/01 14:41:34;;;;;;;40.43;15.70;;;;;;;3.36;100.00;99482.02;1672900;84;21054;-96
2021/12/01 14:44:05;;;;;;;38.13;16.07;;;;;;;3.36;100.00;99495.86;1670333;83;21053;-93
2021/12/01 14:46:34;;;;;;;40.52;15.30;;;;;;;3.39;100.00;99498.05;1663564;84;21590;-93
2021/12/01 14:49:10;;;;;;;42.98;15.60;;;;;;;3.42;100.00;99500.23;1667578;84;21115;-94
2021/12/01 14:51:41;;;;;;;37.35;15.32;;;;;;;3.43;100.00;99501.03;1672237;84;21088;-94
2021/12/01 14:54:15;;;;;;;42.48;16.00;;;;;;;3.41;100.00;99498.59;1682440;83;21087;-93
2021/12/01 14:56:58;;;;;;;44.35;16.37;;;;;;;3.41;100.00;99503.91;1560371;89;21049;-95
2021/12/01 14:59:24;;;;;;;42.10;15.53;;;;;;;3.41;100.00;99515.41;1570701;89;21205;-94
2021/12/01 15:02:15;;;;;;;38.10;15.40;;;;;;;3.40;100.00;99519.63;1570562;89;21118;-94
2021/12/01 15:05:13;;;;;;;43.30;16.37;;;;;;;3.41;100.00;99524.72;1558722;89;21128;-95
2021/12/01 15:08:04;;;;;;;39.98;14.95;;;;;;;3.40;100.00;99531.08;1559083;89;21144;-94
2021/12/01 15:10:31;;;;;;;48.30;19.05;;;;;;;3.41;100.00;99523.89;1560398;89;21031;-95
2021/12/01 15:13:11;;;;;;;42.23;17.13;;;;;;;3.42;100.00;99529.52;1569651;89;21100;-94
2021/12/01 15:16:01;;;;;;;55.23;20.55;;;;;;;3.31;100.00;99510.41;1553256;89;21482;-94
2021/12/01 15:18:40;;;;;;;43.55;15.72;;;;;;;3.44;100.00;99547.91;1586063;89;21103;-94
2021/12/01 15:21:17;;;;;;;45.85;16.80;;;;;;;3.40;100.00;99543.59;1575873;89;21039;-94
2021/12/01 15:26:39;;;;;;;46.90;16.55;;;;;;;3.41;100.00;99547.36;1488476;92;21107;-93
2021/12/01 15:29:12;;;;;;;46.08;16.85;;;;;;;3.38;100.00;99553.16;1477388;93;21737;-94
2021/12/01 15:31:58;;;;;;;47.90;18.00;;;;;;;3.39;100.00;99552.63;1495959;94;27736;-95
2021/12/01 15:34:27;;;;;;;43.92;16.40;;;;;;;3.38;100.00;99553.16;1491984;93;21181;-93
2021/12/01 15:36:54;;;;;;;38.73;14.45;;;;;;;3.33;100.00;99550.92;1479683;94;21121;-93
2021/12/01 15:39:25;;;;;;;42.85;15.00;;;;;;;3.31;100.00;99553.81;1493852;94;22365;-92
2021/12/01 15:41:57;;;;;;;45.58;16.52;;;;;;;3.28;100.00;99560.94;1498230;94;21229;-92
2021/12/01 15:44:25;;;;;;;40.50;14.47;;;;;;;3.27;100.00;99566.52;1496664;93;21146;-92
2021/12/01 15:46:51;;;;;;;40.48;16.20;;;;;;;3.25;100.00;99573.92;1493736;94;21051;-92
2021/12/01 15:49:18;;;;;;;37.55;14.35;;;;;;;3.23;100.00;99574.14;1493914;94;21791;-92
2021/12/01 15:51:44;;;;;;;35.58;14.58;;;;;;;3.23;100.00;99580.00;1495798;93;21080;-92
2021/12/01 15:54:10;;;;;;;38.13;14.87;;;;;;;3.23;100.00;99580.80;1562148;90;21934;-93
2021/12/01 15:56:39;;;;;;;46.10;18.20;;;;;;;3.26;100.00;99584.32;1585296;89;21059;-91
2021/12/01 15:59:06;;;;;;;40.38;15.45;;;;;;;3.24;100.00;99590.42;1588607;87;21111;-92
2021/12/01 16:01:32;;;;;;;39.67;14.87;;;;;;;3.24;100.00;99588.30;1618122;88;21230;-92
2021/12/01 16:03:58;;;;;;;33.95;14.13;;;;;;;3.26;100.00;99594.97;1619114;88;21055;-92
2021/12/01 16:06:24;;;;;;;36.65;14.35;;;;;;;3.25;100.00;99598.69;1617192;88;21124;-91
2021/12/01 16:08:50;;;;;;;39.35;14.73;;;;;;;3.26;100.00;99600.83;1618706;88;21159;-92
2021/12/01 16:11:16;;;;;;;39.00;15.38;;;;;;;3.26;100.00;99596.83;1614270;87;21373;-92
2021/12/01 16:13:47;;;;;;;43.48;15.70;;;;;;;3.24;100.00;99605.06;1598660;88;21639;-92
2021/12/01 16:16:12;;;;;;;40.65;16.17;;;;;;;3.15;100.00;99587.33;1618496;88;21147;-92
2021/12/01 16:18:38;;;;;;;46.48;16.40;;;;;;;3.23;100.00;99601.30;1618315;88;21148;-92
2021/12/01 16:21:04;;;;;;;39.08;14.85;;;;;;;3.21;100.00;99597.56;1616290;88;21003;-92
2021/12/01 16:23:32;;;;;;;36.65;14.58;;;;;;;3.21;100.00;99599.38;1697581;80;21495;-92
2021/12/01 16:25:59;;;;;;;40.92;15.55;;;;;;;3.21;100.00;99603.38;1761348;79;21009;-92
2021/12/01 16:28:25;;;;;;;31.42;13.43;;;;;;;3.20;100.00;99602.57;1762329;79;21100;-91
2021/12/01 16:30:53;;;;;;;37.85;14.78;;;;;;;3.19;100.00;99607.09;1742392;80;21502;-93
2021/12/01 16:33:21;;;;;;;37.08;14.80;;;;;;;3.20;100.00;99607.90;1772408;78;20934;-92
2021/12/01 16:35:47;;;;;;;47.53;16.52;;;;;;;3.21;100.00;99611.36;1734181;80;21127;-92
2021/12/01 16:38:13;;;;;;;40.88;15.50;;;;;;;3.22;100.00;99613.80;1750930;80;21588;-92
2021/12/01 16:40:42;;;;;;;36.85;14.78;;;;;;;3.23;100.00;99621.27;1764315;79;20908;-91
2021/12/01 16:43:13;;;;;;;38.50;14.87;;;;;;;3.22;100.00;99625.78;1770658;79;21033;-91
2021/12/01 16:45:39;;;;;;;38.00;15.20;;;;;;;3.24;100.00;99633.02;1764244;80;21023;-92
2021/12/01 16:48:06;;;;;;;43.08;15.13;;;;;;;3.24;100.00;99632.22;1768710;77;21109;-92
2021/12/01 16:50:32;;;;;;;37.40;13.35;;;;;;;3.24;100.00;99629.03;1774097;78;21101;-91
2021/12/01 16:52:59;;;;;;;43.63;16.15;;;;;;;3.25;100.00;99636.48;1770136;80;21073;-91
2021/12/01 16:55:30;;;;;;;36.75;13.10;;;;;;;3.23;100.00;99642.03;1770127;80;21183;-91
2021/12/01 16:57:58;;;;;;;34.25;13.18;;;;;;;3.23;100.00;99644.70;1768812;79;21118;-91
2021/12/01 17:00:35;;;;;;;36.38;14.15;;;;;;;3.24;100.00;99651.66;1767663;79;21003;-91
2021/12/01 17:03:06;;;;;;;30.50;12.28;;;;;;;3.24;100.00;99650.86;1772678;80;21062;-94
2021/12/01 17:05:35;;;;;;;30.62;11.65;;;;;;;3.25;100.00;99653.27;1769146;79;21066;-91
2021/12/01 17:10:36;;;;;;;31.05;12.28;;;;;;;3.26;100.00;99671.38;1770548;79;21043;-91
2021/12/01 17:13:03;;;;;;;36.17;12.18;;;;;;;3.26;100.00;99672.18;1770370;79;21034;-91
2021/12/01 17:15:29;;;;;;;31.27;11.70;;;;;;;3.25;100.00;99673.23;1771202;80;21018;-92
2021/12/01 17:17:54;;;;;;;25.70;11.18;;;;;;;3.27;100.00;99679.14;1770938;80;20864;-92
2021/12/01 17:20:20;;;;;;;30.30;11.90;;;;;;;3.26;100.00;99678.84;1771057;79;21787;-90
2021/12/01 17:22:47;;;;;;;24.80;11.00;;;;;;;3.25;100.00;99678.56;1749825;79;20880;-90
2021/12/01 17:25:17;;;;;;;29.25;10.72;;;;;;;3.25;100.00;99679.89;1747034;79;21081;-91
2021/12/01 17:27:44;;;;;;;22.07;10.18;;;;;;;3.23;100.00;99675.84;1748231;79;21200;-90
2021/12/01 17:30:22;;;;;;;21.73;9.75;;;;;;;3.23;100.00;99679.30;1718956;81;21135;-91
2021/12/01 17:32:44;;;;;;;26.60;11.70;;;;;;;3.23;100.00;99684.62;1743113;79;21027;-91
2021/12/01 17:35:10;;;;;;;26.80;11.57;;;;;;;3.25;100.00;99691.06;1748877;80;21212;-90
2021/12/01 17:37:36;;;;;;;26.82;11.85;;;;;;;3.26;100.00;99686.02;1746401;79;20971;-91
2021/12/01 17:40:05;;;;;;;29.07;11.95;;;;;;;3.28;100.00;99686.61;1751745;79;21065;-90
2021/12/01 17:42:31;;;;;;;27.95;11.45;;;;;;;3.28;100.00;99686.08;1756946;78;21129;-92
2021/12/01 17:44:58;;;;;;;25.15;11.08;;;;;;;3.30;100.00;99703.97;1746116;79;21071;-90
2021/12/01 17:47:25;;;;;;;28.12;12.73;;;;;;;3.33;100.00;99699.51;1768884;79;21082;-94
2021/12/01 17:49:51;;;;;;;28.30;11.18;;;;;;;3.36;100.00;99702.23;1760952;79;21456;-92
2021/12/01 17:52:17;;;;;;;25.32;11.33;;;;;;;3.37;100.00;99709.16;1776316;80;20991;-90
2021/12/01 17:54:44;;;;;;;26.87;11.80;;;;;;;3.38;100.00;99716.09;1777896;77;21056;-92
2021/12/01 17:57:10;;;;;;;29.85;12.07;;;;;;;3.40;100.00;99720.15;1748246;79;21106;-92
2021/12/01 17:59:38;;;;;;;26.82;11.35;;;;;;;3.41;100.00;99725.78;1762209;78;21090;-94
2021/12/01 18:02:04;;;;;;;30.30;12.45;;;;;;;3.43;100.00;99732.72;1758939;78;21341;-93
2021/12/01 18:07:29;;;;;;;24.82;11.18;;;;;;;3.41;100.00;99734.27;1710124;80;21149;-94
2021/12/01 18:09:55;;;;;;;25.88;10.80;;;;;;;3.37;100.00;99737.92;1702060;82;21160;-94
2021/12/01 18:12:21;;;;;;;29.82;12.18;;;;;;;3.38;100.00;99744.05;1712979;82;20976;-94
2021/12/01 18:14:47;;;;;;;28.75;12.10;;;;;;;3.33;100.00;99742.11;1733301;80;21646;-95
2021/12/01 18:17:14;;;;;;;27.70;11.38;;;;;;;3.31;100.00;99750.04;1763647;80;20878;-95
2021/12/01 18:19:40;;;;;;;26.68;11.78;;;;;;;3.32;100.00;99756.45;1750787;80;21153;-94
2021/12/01 18:22:06;;;;;;;30.08;11.12;;;;;;;3.31;100.00;99768.15;1741413;80;21181;-94
2021/12/01 18:24:34;;;;;;;29.75;11.38;;;;;;;3.27;100.00;99771.53;1716421;81;22277;-94
2021/12/01 18:27:02;;;;;;;27.42;11.45;;;;;;;3.23;100.00;99775.67;1728518;81;21146;-95
2021/12/01 18:29:28;;;;;;;23.05;10.38;;;;;;;3.18;100.00;99781.71;1769172;79;20985;-94
2021/12/01 18:31:56;;;;;;;26.33;11.28;;;;;;;3.15;100.00;99792.82;1791383;79;20869;-95
2021/12/01 18:34:26;;;;;;;25.02;11.15;;;;;;;3.12;100.00;99786.63;1774417;79;21888;-94
2021/12/01 18:36:50;;;;;;;24.72;10.55;;;;;;;3.08;100.00;99783.59;1772318;79;21055;-95
2021/12/01 18:39:16;;;;;;;29.02;11.33;;;;;;;3.00;100.00;99786.63;1745898;80;21139;-93
2021/12/01 18:41:44;;;;;;;29.15;11.18;;;;;;;2.95;100.00;99787.30;1755080;80;21593;-93
2021/12/01 18:44:10;;;;;;;26.87;11.18;;;;;;;2.92;100.00;99793.61;1750015;80;21047;-93
2021/12/01 18:46:37;;;;;;;26.90;11.83;;;;;;;2.88;100.00;99803.90;1772651;78;21749;-95
2021/12/01 18:49:04;;;;;;;23.83;11.05;;;;;;;2.84;100.00;99805.90;1753169;80;21462;-94
2021/12/01 18:51:30;;;;;;;31.35;13.20;;;;;;;2.80;100.00;99811.40;1767752;79;21115;-93
2021/12/01 18:53:56;;;;;;;30.95;12.65;;;;;;;2.77;100.00;99815.84;1773679;78;20838;-93
2021/12/01 18:56:22;;;;;;;27.15;12.23;;;;;;;2.76;100.00;99822.19;1776680;78;20947;-94
2021/12/01 18:58:50;;;;;;;29.70;12.78;;;;;;;2.71;100.00;99817.04;1779502;78;21599;-94
2021/12/01 19:01:16;;;;;;;29.80;12.25;;;;;;;2.70;100.00;99827.37;1766705;80;21077;-94
2021/12/01 19:03:43;;;;;;;27.77;11.80;;;;;;;2.68;100.00;99822.02;1773362;79;21083;-94
2021/12/01 19:06:12;;;;;;;28.02;12.13;;;;;;;2.65;100.00;99829.92;1749893;80;21063;-95
2021/12/01 19:08:39;;;;;;;30.23;11.95;;;;;;;2.63;100.00;99845.28;1749093;79;21603;-93
2021/12/01 19:11:08;;;;;;;28.65;12.35;;;;;;;2.59;100.00;99846.78;1772195;79;21509;-93
2021/12/01 19:13:36;;;;;;;30.08;12.05;;;;;;;2.57;100.00;99858.16;1757419;78;21498;-92
2021/12/01 19:16:03;;;;;;;32.40;12.55;;;;;;;2.55;100.00;99860.22;1775011;77;21761;-92
2021/12/01 19:18:29;;;;;;;30.88;13.62;;;;;;;2.50;100.00;99871.55;1766936;79;21578;-93
2021/12/01 19:20:56;;;;;;;32.55;13.30;;;;;;;2.48;100.00;99864.30;1768598;79;20897;-92
2021/12/01 19:23:22;;;;;;;32.42;13.28;;;;;;;2.49;100.00;99873.89;1750129;79;21063;-92
2021/12/01 19:25:49;;;;;;;30.92;13.08;;;;;;;2.50;100.00;99872.08;1770051;79;21170;-93
2021/12/01 19:28:17;;;;;;;33.30;13.30;;;;;;;2.52;100.00;99881.14;1768816;78;21150;-92
2021/12/01 19:30:43;;;;;;;32.38;13.13;;;;;;;2.53;100.00;99881.42;1743557;79;21054;-93
2021/12/01 19:33:11;;;;;;;35.80;13.93;;;;;;;2.55;100.00;99889.47;1762952;79;20988;-91
2021/12/01 19:35:38;;;;;;;32.63;13.80;;;;;;;2.55;100.00;99893.47;1741174;81;22258;-92
2021/12/01 19:38:04;;;;;;;32.38;14.55;;;;;;;2.53;100.00;99882.75;1757304;79;21114;-91
2021/12/01 19:40:32;;;;;;;31.27;13.95;;;;;;;2.50;100.00;99878.72;1760719;79;21522;-94
2021/12/01 19:42:59;;;;;;;37.48;14.95;;;;;;;2.46;100.00;99886.83;1739086;80;21039;-94
2021/12/01 19:45:27;;;;;;;34.83;14.35;;;;;;;2.38;100.00;99879.16;1764267;79;21027;-92
2021/12/01 19:47:54;;;;;;;34.98;14.75;;;;;;;2.32;100.00;99891.49;1764102;79;21005;-92
2021/12/01 19:50:21;;;;;;;37.20;16.25;;;;;;;2.25;100.00;99888.92;1782797;77;21047;-91
2021/12/01 19:52:49;;;;;;;40.48;16.05;;;;;;;2.19;100.00;99899.11;1765752;79;21319;-91
2021/12/01 19:55:18;;;;;;;39.83;15.83;;;;;;;2.14;100.00;99902.14;1732752;80;21115;-92
2021/12/01 19:57:48;;;;;;;36.83;15.38;;;;;;;2.07;100.00;99912.84;1773476;78;21046;-93
2021/12/01 20:00:19;;;;;;;34.53;14.47;;;;;;;2.02;100.00;99914.83;1779768;78;21323;-93
2021/12/01 20:02:45;;;;;;;33.48;14.75;;;;;;;1.95;100.00;99911.44;1768449;79;21024;-91
2021/12/01 20:05:12;;;;;;;34.05;13.70;;;;;;;1.90;100.00;99918.44;1761083;78;21089;-91
2021/12/01 20:07:44;;;;;;;32.73;14.07;;;;;;;1.86;100.00;99915.94;1756866;79;21045;-93
2021/12/01 20:10:11;;;;;;;34.92;14.73;;;;;;;1.78;100.00;99919.16;1756761;79;21169;-93
2021/12/01 20:12:37;;;;;;;37.20;14.47;;;;;;;1.72;100.00;99918.70;1735078;81;21091;-92
2021/12/01 20:15:05;;;;;;;35.03;14.80;;;;;;;1.68;100.00;99925.49;1767552;79;21765;-93
2021/12/01 20:17:31;;;;;;;39.58;16.12;;;;;;;1.64;100.00;99924.28;1745981;80;21026;-92
2021/12/01 20:19:58;;;;;;;37.30;15.38;;;;;;;1.61;100.00;99936.67;1757909;81;21028;-92
2021/12/01 20:22:25;;;;;;;40.00;16.97;;;;;;;1.59;100.00;99940.88;1750586;81;21873;-92
2021/12/01 20:24:53;;;;;;;39.80;15.90;;;;;;;1.56;100.00;99954.59;1741395;80;21555;-90
2021/12/01 20:27:20;;;;;;;37.45;15.30;;;;;;;1.56;100.00;99958.58;1764159;79;21697;-90
2021/12/01 20:29:47;;;;;;;38.28;16.00;;;;;;;1.57;100.00;99960.20;1747039;80;21020;-91
2021/12/01 20:32:13;;;;;;;41.50;16.12;;;;;;;1.63;100.00;99957.71;1767144;79;20991;-90
2021/12/01 20:34:39;;;;;;;40.00;16.02;;;;;;;1.67;100.00;99961.03;1759751;80;21055;-91
2021/12/01 20:37:05;;;;;;;39.13;15.13;;;;;;;1.72;100.00;99969.16;1764342;79;21076;-90
2021/12/01 20:39:32;;;;;;;38.38;16.20;;;;;;;1.74;100.00;99976.93;1760688;80;21607;-91
2021/12/01 20:42:01;;;;;;;42.33;17.05;;;;;;;1.78;100.00;99974.12;1753379;79;21975;-91
2021/12/01 20:44:29;;;;;;;43.10;16.65;;;;;;;1.84;100.00;99987.86;1752895;79;21604;-91
2021/12/01 20:57:40;;;;;;;41.50;15.75;;;;;;;1.99;100.00;99991.00;1756082;80;21044;-91
2021/12/01 21:03:03;;;;;;;35.05;15.65;;;;;;;2.06;100.00;99992.28;1754556;79;21062;-92
2021/12/01 21:05:30;;;;;;;37.45;15.53;;;;;;;2.10;100.00;100000.11;1782988;78;21483;-93
2021/12/01 21:07:57;;;;;;;36.60;15.45;;;;;;;2.14;100.00;100009.78;1772680;80;21468;-92
2021/12/01 21:10:23;;;;;;;39.48;16.07;;;;;;;2.16;100.00;100009.86;1772702;78;22190;-94
2021/12/01 21:12:50;;;;;;;36.80;15.03;;;;;;;2.18;100.00;100021.09;1783601;78;21534;-92
2021/12/01 21:15:18;;;;;;;35.48;14.63;;;;;;;2.23;100.00;100023.08;1780091;80;21059;-92
2021/12/01 21:17:44;;;;;;;37.58;16.30;;;;;;;2.27;100.00;100026.42;1787781;78;21007;-93
2021/12/01 21:20:10;;;;;;;36.33;15.35;;;;;;;2.32;100.00;100030.27;1785184;78;20962;-93
2021/12/01 21:22:37;;;;;;;36.28;14.63;;;;;;;2.36;100.00;100034.13;1786273;78;21596;-92
2021/12/01 21:25:04;;;;;;;39.30;16.45;;;;;;;2.38;100.00;100042.18;1780511;78;21357;-92
2021/12/01 21:27:31;;;;;;;37.17;15.55;;;;;;;2.41;100.00;100039.58;1780238;78;21113;-93
2021/12/01 21:30:04;;;;;;;33.78;14.63;;;;;;;2.43;100.00;100050.81;1783698;78;21070;-94
2021/12/01 21:32:29;;;;;;;34.65;13.88;;;;;;;2.45;100.00;100049.56;1771726;78;21477;-93
2021/12/01 21:34:56;;;;;;;31.45;12.95;;;;;;;2.48;100.00;100052.30;1787656;78;20951;-93
2021/12/01 21:37:24;;;;;;;31.73;12.95;;;;;;;2.47;100.00;100048.84;1775125;80;21015;-92
2021/12/01 21:39:53;;;;;;;31.37;11.95;;;;;;;2.46;100.00;100053.03;1778017;78;21434;-93
2021/12/01 21:42:20;;;;;;;42.90;14.07;;;;;;;2.44;100.00;100059.08;1779912;78;21042;-94
2021/12/01 21:44:49;;;;;;;39.20;13.40;;;;;;;2.41;100.00;100064.84;1780098;78;21441;-93
2021/12/01 21:47:16;;;;;;;51.23;14.18;;;;;;;2.36;100.00;100068.16;1780756;78;21106;-93
2021/12/01 21:49:43;;;;;;;40.48;13.03;;;;;;;2.27;100.00;100071.62;1745618;79;21106;-93
2021/12/01 21:52:13;;;;;;;38.02;11.05;;;;;;;2.20;100.00;100076.16;1779062;77;21027;-92
2021/12/01 21:54:43;;;;;;;28.50;9.45;;;;;;;2.13;100.00;100082.58;1784162;78;21082;-91
2021/12/01 21:57:12;;;;;;;34.53;10.25;;;;;;;2.04;100.00;100090.00;1783749;78;21500;-91
2021/12/01 21:59:43;;;;;;;29.80;9.05;;;;;;;1.94;100.00;100090.50;1781160;78;21019;-92
2021/12/01 22:02:10;;;;;;;23.83;8.68;;;;;;;1.85;100.00;100094.41;1780659;78;21117;-92
2021/12/01 22:04:38;;;;;;;25.02;8.18;;;;;;;1.76;100.00;100098.36;1783814;78;21085;-91
2021/12/01 22:07:05;;;;;;;15.72;6.50;;;;;;;1.68;100.00;100103.95;1779905;78;21008;-92
2021/12/01 22:09:32;;;;;;;15.30;6.45;;;;;;;1.59;100.00;100108.70;1786561;78;20955;-91
2021/12/01 22:11:59;;;;;;;16.10;6.35;;;;;;;1.51;100.00;100111.59;1772732;78;20996;-91
2021/12/01 22:14:25;;;;;;;20.50;8.30;;;;;;;1.46;100.00;100118.05;1777898;78;21023;-91
2021/12/01 22:16:51;;;;;;;14.68;6.00;;;;;;;1.36;100.00;100128.61;1780431;78;21957;-91
2021/12/01 22:19:19;;;;;;;12.23;5.08;;;;;;;1.30;100.00;100129.45;1775017;78;20884;-89
2021/12/01 22:21:51;;;;;;;8.80;4.25;;;;;;;1.23;100.00;100137.12;1782077;78;21073;-91
2021/12/01 22:24:21;;;;;;;11.10;4.30;;;;;;;1.13;100.00;100134.92;1783439;78;20995;-90
2021/12/01 22:26:54;;;;;;;11.15;4.30;;;;;;;1.07;100.00;100145.05;1783368;78;21036;-91
2021/12/01 22:29:23;;;;;;;;;;;;;;;1.02;100.00;100146.98;1784620;78;21320;-89
2021/12/01 22:31:49;;;;;;;9.83;4.40;;;;;;;0.94;100.00;100155.67;1779724;78;20193;-89
2021/12/01 22:34:17;;;;;;;12.10;4.78;;;;;;;0.84;100.00;100161.41;1743382;78;20927;-89
2021/12/01 22:36:45;;;;;;;10.80;4.92;;;;;;;0.76;100.00;100163.76;1787474;78;21007;-90
2021/12/01 22:39:13;;;;;;;10.85;4.53;;;;;;;0.66;100.00;100169.48;1780899;78;21165;-90
2021/12/01 22:41:42;;;;;;;9.68;4.42;;;;;;;0.59;100.00;100167.84;1780348;78;21145;-89
2021/12/01 22:44:09;;;;;;;12.63;4.28;;;;;;;0.50;100.00;100170.41;1783577;78;21546;-89
2021/12/01 22:46:38;;;;;;;11.48;4.62;;;;;;;0.42;100.00;100170.12;1780373;78;21472;-90
2021/12/01 22:49:06;;;;;;;9.65;4.42;;;;;;;0.33;100.00;100177.45;1781297;78;21039;-90
2021/12/01 22:51:33;;;;;;;10.60;4.08;;;;;;;0.27;100.00;100177.45;1780419;78;21014;-90
2021/12/01 22:53:58;;;;;;;12.25;4.00;;;;;;;0.16;100.00;100178.86;1778352;78;22420;-88
2021/12/01 22:56:29;;;;;;;9.35;3.90;;;;;;;0.10;100.00;100175.69;1782281;78;20880;-89
2021/12/01 22:59:03;;;;;;;9.08;3.85;;;;;;;0.07;100.00;100184.05;1773951;80;21039;-90
2021/12/01 23:01:33;;;;;;;12.07;4.00;;;;;;;0.01;100.00;100192.80;1776126;78;21014;-89
2021/12/01 23:04:01;;;;;;;8.98;3.77;;;;;;;-0.07;100.00;100195.11;1785126;78;21057;-89
2021/12/01 23:06:28;;;;;;;8.08;3.70;;;;;;;-0.13;100.00;100207.31;1783854;78;21139;-89
2021/12/01 23:08:55;;;;;;;10.90;3.52;;;;;;;-0.19;100.00;100204.14;1774716;78;20956;-90
2021/12/01 23:11:24;;;;;;;7.35;3.58;;;;;;;-0.22;100.00;100214.31;1783974;78;21062;-89
2021/12/01 23:13:52;;;;;;;9.03;3.50;;;;;;;-0.28;100.00;100211.44;1776815;78;21006;-89
2021/12/01 23:16:18;;;;;;;14.73;3.70;;;;;;;-0.32;100.00;100219.99;1776137;78;21669;-90
2021/12/01 23:18:45;;;;;;;7.20;3.58;;;;;;;-0.38;100.00;100218.11;1787732;78;21078;-90
2021/12/01 23:21:14;;;;;;;8.30;3.42;;;;;;;-0.44;100.00;100222.87;1787374;78;21097;-88
2021/12/01 23:28:59;;;;;;;7.28;2.95;;;;;;;-0.61;100.00;100225.86;1783034;78;21031;-89
2021/12/01 23:31:27;;;;;;;10.95;2.80;;;;;;;-0.65;100.00;100230.40;1778086;78;21139;-91
2021/12/01 23:33:57;;;;;;;7.85;2.85;;;;;;;-0.73;100.00;100231.39;1778538;80;20979;-88
2021/12/01 23:36:26;;;;;;;8.15;2.77;;;;;;;-0.81;100.00;100237.64;1782356;78;21047;-89
2021/12/01 23:38:52;;;;;;;7.53;2.70;;;;;;;-0.86;100.00;100247.98;1783718;78;21046;-89
2021/12/01 23:41:19;;;;;;;9.30;3.17;;;;;;;-0.90;100.00;100252.55;1776207;78;21054;-88
2021/12/01 23:43:48;;;;;;;8.10;3.35;;;;;;;-0.94;100.00;100252.93;1766283;79;21658;-89
2021/12/01 23:51:34;;;;;;;7.60;2.95;;;;;;;-1.10;100.00;100263.78;1782762;78;21007;-89
2021/12/01 23:54:04;;;;;;;11.25;3.27;;;;;;;-1.15;100.00;100266.17;1781507;78;21050;-88
2021/12/01 23:56:33;;;;;;;8.90;3.25;;;;;;;-1.22;100.00;100270.09;1781338;78;21117;-89
2021/12/01 23:59:00;;;;;;;9.70;3.52;;;;;;;-1.25;100.00;100274.44;1780244;78;20969;-88
